Ilford, Canada
Current Conditions -  °F | °C
As of 4:53 AM on Saturday 25 Oct 2014 (Local Time) from CYGX Reporting Station
Drizzle Drizzle  
Wind Chill: -1°   Ceiling: 800
Heat Index:   Visibility: 10mi
Dew Point:   Wind: 15mph
Humidity: 93%   Direction: 280°W
Pressure: 29.45"   Gusts: 25mph
Location:  56.04°N, 95.58°W
Report Text: CYGX 250953Z 28013G22KT 10SM -DZ OVC008 04/03 A2945 RMK ST8 CIG RAG SLP979
Loading
Personal Weather Stations






























Interactive Weather Map
Tropical Storm Tracking
New forecast layout! Learn more

10-Day Weather Forecast

Advertisements
Track Severe Weather on mobile